sensor_id;sensor_type;location;lat;lon;timestamp;pressure;altitude;pressure_sealevel;temperature;humidity
5879;BME280;2965;42.640;23.370;2023-03-30T04:01:06;95070.31;;;4.39;100.00
5879;BME280;2965;42.640;23.370;2023-03-30T04:03:32;95070.56;;;4.36;100.00
5879;BME280;2965;42.640;23.370;2023-03-30T04:05:58;95072.44;;;4.34;100.00
5879;BME280;2965;42.640;23.370;2023-03-30T04:08:24;95070.56;;;4.36;100.00
5879;BME280;2965;42.640;23.370;2023-03-30T04:10:50;95072.59;;;4.42;100.00
5879;BME280;2965;42.640;23.370;2023-03-30T04:13:15;95068.13;;;4.44;100.00
5879;BME280;2965;42.640;23.370;2023-03-30T04:15:41;95068.91;;;4.35;100.00
5879;BME280;2965;42.640;23.370;2023-03-30T04:18:06;95066.75;;;4.40;100.00
5879;BME280;2965;42.640;23.370;2023-03-30T04:20:32;95068.38;;;4.41;100.00
5879;BME280;2965;42.640;23.370;2023-03-30T04:22:58;95062.94;;;4.44;100.00
5879;BME280;2965;42.640;23.370;2023-03-30T04:25:26;95060.78;;;4.49;100.00
5879;BME280;2965;42.640;23.370;2023-03-30T04:27:52;95066.50;;;4.52;100.00
5879;BME280;2965;42.640;23.370;2023-03-30T04:30:18;95063.75;;;4.35;100.00
5879;BME280;2965;42.640;23.370;2023-03-30T04:32:44;95064.41;;;4.37;100.00
5879;BME280;2965;42.640;23.370;2023-03-30T04:35:11;95063.47;;;4.38;100.00
5879;BME280;2965;42.640;23.370;2023-03-30T04:37:38;95067.16;;;4.35;100.00
5879;BME280;2965;42.640;23.370;2023-03-30T04:40:07;95058.28;;;4.38;100.00
5879;BME280;2965;42.640;23.370;2023-03-30T04:42:34;95063.19;;;4.41;100.00
5879;BME280;2965;42.640;23.370;2023-03-30T04:45:07;95070.56;;;4.45;100.00
5879;BME280;2965;42.640;23.370;2023-03-30T04:47:33;95068.94;;;4.44;100.00
5879;BME280;2965;42.640;23.370;2023-03-30T04:49:59;95077.69;;;4.43;100.00
5879;BME280;2965;42.640;23.370;2023-03-30T04:52:25;95073.56;;;4.41;100.00
5879;BME280;2965;42.640;23.370;2023-03-30T04:54:51;95067.84;;;4.47;100.00
5879;BME280;2965;42.640;23.370;2023-03-30T04:57:16;95072.09;;;4.48;100.00
5879;BME280;2965;42.640;23.370;2023-03-30T04:59:42;95077.13;;;4.49;100.00
5879;BME280;2965;42.640;23.370;2023-03-30T05:02:09;95079.06;;;4.57;100.00
5879;BME280;2965;42.640;23.370;2023-03-30T05:04:36;95070.91;;;4.71;100.00
5879;BME280;2965;42.640;23.370;2023-03-30T05:07:02;95082.41;;;4.78;100.00
5879;BME280;2965;42.640;23.370;2023-03-30T05:09:28;95078.59;;;4.92;100.00
5879;BME280;2965;42.640;23.370;2023-03-30T05:11:53;95077.78;;;4.92;100.00
5879;BME280;2965;42.640;23.370;2023-03-30T05:14:19;95085.66;;;5.00;100.00
5879;BME280;2965;42.640;23.370;2023-03-30T05:16:47;95081.84;;;5.04;100.00
5879;BME280;2965;42.640;23.370;2023-03-30T05:19:13;95083.38;;;5.06;100.00
5879;BME280;2965;42.640;23.370;2023-03-30T05:21:38;95090.34;;;5.06;100.00
5879;BME280;2965;42.640;23.370;2023-03-30T05:24:04;95079.97;;;5.06;100.00
5879;BME280;2965;42.640;23.370;2023-03-30T05:26:29;95094.41;;;4.99;100.00
5879;BME280;2965;42.640;23.370;2023-03-30T05:28:55;95084.03;;;5.09;100.00
5879;BME280;2965;42.640;23.370;2023-03-30T05:31:21;95094.16;;;5.21;100.00
5879;BME280;2965;42.640;23.370;2023-03-30T05:33:46;95091.69;;;5.20;100.00
5879;BME280;2965;42.640;23.370;2023-03-30T05:36:12;95088.69;;;5.34;100.00
5879;BME280;2965;42.640;23.370;2023-03-30T05:38:38;95086.50;;;5.39;100.00
5879;BME280;2965;42.640;23.370;2023-03-30T05:41:04;95077.75;;;5.50;100.00
5879;BME280;2965;42.640;23.370;2023-03-30T05:43:32;95082.38;;;5.56;100.00
5879;BME280;2965;42.640;23.370;2023-03-30T05:45:58;95084.00;;;5.76;100.00
5879;BME280;2965;42.640;23.370;2023-03-30T05:48:23;95094.09;;;5.79;100.00
5879;BME280;2965;42.640;23.370;2023-03-30T05:50:49;95083.75;;;5.60;100.00
5879;BME280;2965;42.640;23.370;2023-03-30T05:53:14;95096.03;;;5.68;100.00
5879;BME280;2965;42.640;23.370;2023-03-30T05:55:43;95097.66;;;5.78;100.00
5879;BME280;2965;42.640;23.370;2023-03-30T05:58:09;95096.41;;;5.82;100.00
5879;BME280;2965;42.640;23.370;2023-03-30T06:00:35;95108.59;;;5.82;100.00
5879;BME280;2965;42.640;23.370;2023-03-30T06:03:01;95094.16;;;6.54;100.00
5879;BME280;2965;42.640;23.370;2023-03-30T06:05:27;95099.81;;;6.67;100.00
5879;BME280;2965;42.640;23.370;2023-03-30T06:07:52;95099.50;;;6.98;100.00
5879;BME280;2965;42.640;23.370;2023-03-30T06:10:18;95101.56;;;7.40;100.00
5879;BME280;2965;42.640;23.370;2023-03-30T06:12:44;95113.72;;;7.21;100.00
5879;BME280;2965;42.640;23.370;2023-03-30T06:15:09;95120.84;;;7.01;100.00
5879;BME280;2965;42.640;23.370;2023-03-30T06:17:35;95127.34;;;6.32;100.00
5879;BME280;2965;42.640;23.370;2023-03-30T06:20:02;95133.03;;;6.09;100.00
5879;BME280;2965;42.640;23.370;2023-03-30T06:22:33;95134.03;;;5.98;100.00
5879;BME280;2965;42.640;23.370;2023-03-30T06:24:58;95130.34;;;6.28;100.00
5879;BME280;2965;42.640;23.370;2023-03-30T06:27:24;95133.09;;;6.26;100.00
5879;BME280;2965;42.640;23.370;2023-03-30T06:29:50;95120.72;;;6.48;100.00
5879;BME280;2965;42.640;23.370;2023-03-30T06:32:15;95132.47;;;6.52;100.00
5879;BME280;2965;42.640;23.370;2023-03-30T06:34:41;95134.56;;;6.39;100.00
5879;BME280;2965;42.640;23.370;2023-03-30T06:37:06;95139.88;;;6.00;100.00
5879;BME280;2965;42.640;23.370;2023-03-30T06:39:33;95142.34;;;5.92;100.00
5879;BME280;2965;42.640;23.370;2023-03-30T06:42:01;95146.03;;;5.60;100.00
5879;BME280;2965;42.640;23.370;2023-03-30T06:44:26;95143.31;;;5.52;100.00
5879;BME280;2965;42.640;23.370;2023-03-30T06:46:52;95142.47;;;5.80;100.00
5879;BME280;2965;42.640;23.370;2023-03-30T06:49:17;95134.22;;;6.14;100.00
5879;BME280;2965;42.640;23.370;2023-03-30T06:51:43;95121.03;;;6.35;100.00
5879;BME280;2965;42.640;23.370;2023-03-30T06:54:08;95131.66;;;6.51;100.00
5879;BME280;2965;42.640;23.370;2023-03-30T06:56:34;95142.28;;;6.58;100.00
5879;BME280;2965;42.640;23.370;2023-03-30T06:58:59;95148.66;;;6.73;100.00
5879;BME280;2965;42.640;23.370;2023-03-30T07:01:25;95156.63;;;6.90;100.00
5879;BME280;2965;42.640;23.370;2023-03-30T07:03:53;95139.88;;;7.02;100.00
5879;BME280;2965;42.640;23.370;2023-03-30T07:06:18;95145.59;;;7.05;100.00
5879;BME280;2965;42.640;23.370;2023-03-30T07:08:44;95147.09;;;6.80;100.00
5879;BME280;2965;42.640;23.370;2023-03-30T07:11:09;95146.94;;;6.64;100.00
5879;BME280;2965;42.640;23.370;2023-03-30T07:13:35;95149.81;;;6.61;100.00
5879;BME280;2965;42.640;23.370;2023-03-30T07:16:00;95152.13;;;6.64;100.00
5879;BME280;2965;42.640;23.370;2023-03-30T07:18:26;95155.38;;;6.66;100.00
5879;BME280;2965;42.640;23.370;2023-03-30T07:20:51;95154.81;;;6.72;100.00
5879;BME280;2965;42.640;23.370;2023-03-30T07:23:17;95153.31;;;6.97;100.00
5879;BME280;2965;42.640;23.370;2023-03-30T07:25:44;95150.97;;;7.04;100.00
5879;BME280;2965;42.640;23.370;2023-03-30T07:28:09;95159.63;;;6.95;100.00
5879;BME280;2965;42.640;23.370;2023-03-30T07:30:35;95156.47;;;7.19;100.00
5879;BME280;2965;42.640;23.370;2023-03-30T07:35:26;95164.31;;;7.37;100.00
5879;BME280;2965;42.640;23.370;2023-03-30T07:37:52;95158.50;;;7.43;100.00
5879;BME280;2965;42.640;23.370;2023-03-30T07:40:18;95154.25;;;7.42;100.00
5879;BME280;2965;42.640;23.370;2023-03-30T07:42:43;95157.59;;;7.34;100.00
5879;BME280;2965;42.640;23.370;2023-03-30T07:45:09;95162.31;;;7.03;100.00
5879;BME280;2965;42.640;23.370;2023-03-30T07:47:35;95161.72;;;6.91;100.00
5879;BME280;2965;42.640;23.370;2023-03-30T07:50:02;95160.34;;;7.32;100.00
5879;BME280;2965;42.640;23.370;2023-03-30T07:52:27;95154.78;;;7.63;100.00
5879;BME280;2965;42.640;23.370;2023-03-30T07:54:53;95152.63;;;7.76;100.00
5879;BME280;2965;42.640;23.370;2023-03-30T07:57:19;95149.28;;;7.66;100.00
5879;BME280;2965;42.640;23.370;2023-03-30T07:59:45;95148.69;;;7.72;100.00
5879;BME280;2965;42.640;23.370;2023-03-30T08:02:12;95143.91;;;7.86;100.00
5879;BME280;2965;42.640;23.370;2023-03-30T08:04:39;95147.69;;;7.91;100.00
5879;BME280;2965;42.640;23.370;2023-03-30T08:07:06;95152.72;;;8.11;100.00
5879;BME280;2965;42.640;23.370;2023-03-30T08:09:31;95157.72;;;8.04;100.00
5879;BME280;2965;42.640;23.370;2023-03-30T08:11:57;95146.88;;;7.91;100.00
5879;BME280;2965;42.640;23.370;2023-03-30T08:14:23;95151.94;;;8.18;100.00
5879;BME280;2965;42.640;23.370;2023-03-30T08:16:51;95149.56;;;8.51;100.00
5879;BME280;2965;42.640;23.370;2023-03-30T08:19:17;95154.69;;;8.61;100.00
5879;BME280;2965;42.640;23.370;2023-03-30T08:21:42;95151.78;;;8.72;99.56
5879;BME280;2965;42.640;23.370;2023-03-30T08:24:07;95145.25;;;9.10;98.65
5879;BME280;2965;42.640;23.370;2023-03-30T08:26:34;95138.75;;;9.22;94.26
5879;BME280;2965;42.640;23.370;2023-03-30T08:29:00;95142.81;;;9.25;93.23
5879;BME280;2965;42.640;23.370;2023-03-30T08:31:26;95135.84;;;9.33;94.54
5879;BME280;2965;42.640;23.370;2023-03-30T08:33:51;95140.41;;;9.31;88.85
5879;BME280;2965;42.640;23.370;2023-03-30T08:36:17;95140.09;;;9.34;87.81
5879;BME280;2965;42.640;23.370;2023-03-30T08:38:44;95133.09;;;9.51;88.52
5879;BME280;2965;42.640;23.370;2023-03-30T08:44:06;95132.94;;;9.77;86.30
5879;BME280;2965;42.640;23.370;2023-03-30T08:46:34;95135.56;;;10.02;88.38
5879;BME280;2965;42.640;23.370;2023-03-30T08:49:03;95137.84;;;10.29;86.16
5879;BME280;2965;42.640;23.370;2023-03-30T08:51:33;95129.31;;;10.44;85.45
5879;BME280;2965;42.640;23.370;2023-03-30T08:54:02;95121.53;;;10.75;85.96
5879;BME280;2965;42.640;23.370;2023-03-30T08:56:36;95137.03;;;10.84;85.32
5879;BME280;2965;42.640;23.370;2023-03-30T08:59:44;95128.53;;;10.82;84.00
5879;BME280;2965;42.640;23.370;2023-03-30T09:07:44;95114.41;;;11.00;82.45
5879;BME280;2965;42.640;23.370;2023-03-30T09:10:13;95105.53;;;11.01;82.82
5879;BME280;2965;42.640;23.370;2023-03-30T09:15:15;95107.81;;;11.58;75.17
5879;BME280;2965;42.640;23.370;2023-03-30T09:20:23;95093.19;;;12.24;72.19
5879;BME280;2965;42.640;23.370;2023-03-30T09:22:51;95097.16;;;12.20;72.86
5879;BME280;2965;42.640;23.370;2023-03-30T09:30:45;95096.78;;;10.94;72.58
5879;BME280;2965;42.640;23.370;2023-03-30T09:38:23;95080.31;;;11.77;69.74
5879;BME280;2965;42.640;23.370;2023-03-30T09:41:01;95075.97;;;11.69;68.22
5879;BME280;2965;42.640;23.370;2023-03-30T09:43:33;95076.38;;;11.58;71.76
5879;BME280;2965;42.640;23.370;2023-03-30T09:46:04;95075.91;;;11.31;70.60
5879;BME280;2965;42.640;23.370;2023-03-30T09:48:42;95069.81;;;11.16;69.77
5879;BME280;2965;42.640;23.370;2023-03-30T09:53:44;95060.16;;;11.77;67.34
5879;BME280;2965;42.640;23.370;2023-03-30T09:56:34;95059.16;;;11.86;63.89
5879;BME280;2965;42.640;23.370;2023-03-30T10:01:51;95055.09;;;11.99;62.95
5879;BME280;2965;42.640;23.370;2023-03-30T10:04:16;95062.81;;;12.15;62.14
5879;BME280;2965;42.640;23.370;2023-03-30T10:06:48;95040.84;;;11.78;61.71
5879;BME280;2965;42.640;23.370;2023-03-30T10:09:16;95041.28;;;12.05;65.78
5879;BME280;2965;42.640;23.370;2023-03-30T10:11:46;95033.69;;;12.10;65.46
5879;BME280;2965;42.640;23.370;2023-03-30T10:14:35;95042.09;;;12.20;62.57
5879;BME280;2965;42.640;23.370;2023-03-30T10:17:02;95040.69;;;11.95;61.42
5879;BME280;2965;42.640;23.370;2023-03-30T10:19:29;95049.41;;;12.10;62.05
5879;BME280;2965;42.640;23.370;2023-03-30T10:21:59;95049.91;;;11.91;60.94
5879;BME280;2965;42.640;23.370;2023-03-30T10:24:31;95037.75;;;11.98;61.18
5879;BME280;2965;42.640;23.370;2023-03-30T10:27:10;95034.75;;;12.60;62.35
5879;BME280;2965;42.640;23.370;2023-03-30T10:29:37;95034.03;;;12.66;61.02
5879;BME280;2965;42.640;23.370;2023-03-30T10:32:26;95025.28;;;13.31;61.61
5879;BME280;2965;42.640;23.370;2023-03-30T10:34:56;95026.59;;;13.42;60.50
5879;BME280;2965;42.640;23.370;2023-03-30T10:37:29;95031.00;;;13.20;57.86
5879;BME280;2965;42.640;23.370;2023-03-30T10:39:57;95023.09;;;12.99;57.96
5879;BME280;2965;42.640;23.370;2023-03-30T10:42:25;95027.91;;;12.95;57.69
5879;BME280;2965;42.640;23.370;2023-03-30T10:44:59;95018.75;;;13.06;57.35
5879;BME280;2965;42.640;23.370;2023-03-30T10:55:33;95010.28;;;13.25;57.35
5879;BME280;2965;42.640;23.370;2023-03-30T10:58:35;95004.53;;;13.22;57.13
5879;BME280;2965;42.640;23.370;2023-03-30T11:04:04;95007.69;;;13.32;59.06
5879;BME280;2965;42.640;23.370;2023-03-30T11:06:33;94993.50;;;13.26;57.25
5879;BME280;2965;42.640;23.370;2023-03-30T11:09:03;94999.34;;;13.50;61.17
5879;BME280;2965;42.640;23.370;2023-03-30T11:11:40;94998.06;;;13.88;57.57
5879;BME280;2965;42.640;23.370;2023-03-30T11:14:15;94980.94;;;13.71;55.07
5879;BME280;2965;42.640;23.370;2023-03-30T11:16:51;94983.88;;;13.89;57.22
5879;BME280;2965;42.640;23.370;2023-03-30T11:19:28;94979.69;;;14.30;56.18
5879;BME280;2965;42.640;23.370;2023-03-30T11:24:30;94972.69;;;14.09;53.88
5879;BME280;2965;42.640;23.370;2023-03-30T11:27:09;94974.53;;;14.15;55.16
5879;BME280;2965;42.640;23.370;2023-03-30T11:30:18;94961.31;;;14.02;58.32
5879;BME280;2965;42.640;23.370;2023-03-30T11:35:46;94952.50;;;14.16;54.90
5879;BME280;2965;42.640;23.370;2023-03-30T11:38:18;94953.97;;;13.91;57.34
5879;BME280;2965;42.640;23.370;2023-03-30T11:40:51;94954.50;;;13.79;54.92
5879;BME280;2965;42.640;23.370;2023-03-30T11:43:19;94945.38;;;13.75;55.71
5879;BME280;2965;42.640;23.370;2023-03-30T11:50:59;94941.94;;;13.47;54.44
5879;BME280;2965;42.640;23.370;2023-03-30T11:53:52;94932.78;;;13.64;53.70
5879;BME280;2965;42.640;23.370;2023-03-30T11:56:35;94931.28;;;13.89;54.17
5879;BME280;2965;42.640;23.370;2023-03-30T11:59:07;94939.53;;;14.14;53.58
5879;BME280;2965;42.640;23.370;2023-03-30T12:10:41;94922.66;;;15.11;49.04
5879;BME280;2965;42.640;23.370;2023-03-30T12:13:11;94913.13;;;15.30;58.25
5879;BME280;2965;42.640;23.370;2023-03-30T12:18:17;94905.22;;;15.17;49.33
5879;BME280;2965;42.640;23.370;2023-03-30T12:23:35;94887.53;;;16.04;56.74
5879;BME280;2965;42.640;23.370;2023-03-30T12:28:43;94880.53;;;16.29;47.09
5879;BME280;2965;42.640;23.370;2023-03-30T12:31:10;94876.00;;;16.36;45.02
5879;BME280;2965;42.640;23.370;2023-03-30T12:38:53;94868.38;;;16.22;44.30
5879;BME280;2965;42.640;23.370;2023-03-30T12:41:22;94866.19;;;16.57;45.67
5879;BME280;2965;42.640;23.370;2023-03-30T12:52:16;94849.63;;;17.06;45.39
5879;BME280;2965;42.640;23.370;2023-03-30T12:58:42;94840.72;;;16.24;44.18
5879;BME280;2965;42.640;23.370;2023-03-30T13:03:57;94837.28;;;16.24;47.50
5879;BME280;2965;42.640;23.370;2023-03-30T13:29:57;94786.31;;;17.18;43.35
5879;BME280;2965;42.640;23.370;2023-03-30T13:35:28;94781.47;;;17.15;48.39
5879;BME280;2965;42.640;23.370;2023-03-30T13:40:47;94764.09;;;17.01;43.85
5879;BME280;2965;42.640;23.370;2023-03-30T13:51:35;94761.69;;;15.98;47.39
5879;BME280;2965;42.640;23.370;2023-03-30T13:54:04;94755.38;;;15.54;46.86
5879;BME280;2965;42.640;23.370;2023-03-30T13:56:35;94747.66;;;15.59;45.80
5879;BME280;2965;42.640;23.370;2023-03-30T13:59:05;94748.50;;;15.98;45.74
5879;BME280;2965;42.640;23.370;2023-03-30T14:01:31;94753.63;;;15.93;44.86
5879;BME280;2965;42.640;23.370;2023-03-30T14:03:58;94752.28;;;15.77;44.63
5879;BME280;2965;42.640;23.370;2023-03-30T14:06:27;94752.00;;;15.92;46.01
5879;BME280;2965;42.640;23.370;2023-03-30T14:11:36;94750.44;;;15.77;46.13
5879;BME280;2965;42.640;23.370;2023-03-30T14:14:03;94745.13;;;15.91;45.29
5879;BME280;2965;42.640;23.370;2023-03-30T14:16:37;94749.59;;;15.83;45.67
5879;BME280;2965;42.640;23.370;2023-03-30T14:21:44;94740.81;;;16.59;45.20
5879;BME280;2965;42.640;23.370;2023-03-30T14:24:27;94740.25;;;17.07;45.99
5879;BME280;2965;42.640;23.370;2023-03-30T14:27:00;94741.19;;;17.13;46.07
5879;BME280;2965;42.640;23.370;2023-03-30T14:29:25;94738.91;;;16.73;43.31
5879;BME280;2965;42.640;23.370;2023-03-30T14:31:54;94738.91;;;16.73;44.85
5879;BME280;2965;42.640;23.370;2023-03-30T14:34:25;94733.97;;;16.83;44.35
5879;BME280;2965;42.640;23.370;2023-03-30T14:37:13;94737.13;;;16.67;43.56
5879;BME280;2965;42.640;23.370;2023-03-30T14:39:41;94720.72;;;17.08;45.72
5879;BME280;2965;42.640;23.370;2023-03-30T14:42:13;94724.34;;;17.32;42.94
5879;BME280;2965;42.640;23.370;2023-03-30T14:44:40;94720.44;;;17.17;43.22
5879;BME280;2965;42.640;23.370;2023-03-30T14:47:06;94723.72;;;16.94;42.76
5879;BME280;2965;42.640;23.370;2023-03-30T14:49:32;94719.19;;;17.01;42.97
5879;BME280;2965;42.640;23.370;2023-03-30T14:52:00;94716.28;;;17.09;43.48
5879;BME280;2965;42.640;23.370;2023-03-30T14:54:27;94715.25;;;17.47;43.63
5879;BME280;2965;42.640;23.370;2023-03-30T14:56:58;94715.69;;;17.44;42.13
5879;BME280;2965;42.640;23.370;2023-03-30T14:59:26;94705.19;;;17.55;42.37
5879;BME280;2965;42.640;23.370;2023-03-30T15:01:53;94709.06;;;17.34;42.46
5879;BME280;2965;42.640;23.370;2023-03-30T15:04:22;94702.75;;;17.17;42.40
5879;BME280;2965;42.640;23.370;2023-03-30T15:06:49;94706.00;;;17.37;42.07
5879;BME280;2965;42.640;23.370;2023-03-30T15:09:20;94701.13;;;17.89;42.22
5879;BME280;2965;42.640;23.370;2023-03-30T15:11:56;94702.00;;;18.44;41.05
5879;BME280;2965;42.640;23.370;2023-03-30T15:14:23;94703.69;;;18.92;40.48
5879;BME280;2965;42.640;23.370;2023-03-30T15:16:52;94703.22;;;19.18;38.34
5879;BME280;2965;42.640;23.370;2023-03-30T15:19:26;94697.69;;;19.31;38.48
5879;BME280;2965;42.640;23.370;2023-03-30T15:21:55;94697.97;;;19.58;38.52
5879;BME280;2965;42.640;23.370;2023-03-30T15:24:24;94691.53;;;19.66;36.83
5879;BME280;2965;42.640;23.370;2023-03-30T15:26:53;94698.63;;;19.77;36.88
5879;BME280;2965;42.640;23.370;2023-03-30T15:29:20;94690.97;;;19.40;37.77
5879;BME280;2965;42.640;23.370;2023-03-30T15:32:06;94688.63;;;19.56;37.24
5879;BME280;2965;42.640;23.370;2023-03-30T15:34:35;94680.47;;;18.63;37.77
5879;BME280;2965;42.640;23.370;2023-03-30T15:37:01;94689.97;;;19.06;37.03
5879;BME280;2965;42.640;23.370;2023-03-30T15:42:06;94675.13;;;19.69;36.90
5879;BME280;2965;42.640;23.370;2023-03-30T15:44:38;94677.06;;;19.74;37.18
5879;BME280;2965;42.640;23.370;2023-03-30T15:47:17;94672.75;;;20.13;40.53
5879;BME280;2965;42.640;23.370;2023-03-30T15:49:49;94666.19;;;20.15;35.58
5879;BME280;2965;42.640;23.370;2023-03-30T15:52:35;94654.91;;;20.25;35.92
5879;BME280;2965;42.640;23.370;2023-03-30T15:57:41;94647.09;;;20.19;35.25
5879;BME280;2965;42.640;23.370;2023-03-30T16:00:13;94643.31;;;20.31;36.50
5879;BME280;2965;42.640;23.370;2023-03-30T16:02:46;94645.13;;;20.42;35.84
5879;BME280;2965;42.640;23.370;2023-03-30T16:05:20;94647.22;;;20.57;37.55
5879;BME280;2965;42.640;23.370;2023-03-30T16:07:46;94644.28;;;20.25;36.24
5879;BME280;2965;42.640;23.370;2023-03-30T16:10:13;94661.75;;;20.21;36.20
5879;BME280;2965;42.640;23.370;2023-03-30T16:12:41;94646.75;;;19.70;35.86
5879;BME280;2965;42.640;23.370;2023-03-30T16:15:18;94651.56;;;19.32;37.33
5879;BME280;2965;42.640;23.370;2023-03-30T16:17:44;94651.13;;;19.12;39.15
5879;BME280;2965;42.640;23.370;2023-03-30T16:20:18;94656.81;;;18.15;40.35
5879;BME280;2965;42.640;23.370;2023-03-30T16:22:45;94652.91;;;17.69;43.27
5879;BME280;2965;42.640;23.370;2023-03-30T16:25:19;94649.88;;;17.17;44.77
5879;BME280;2965;42.640;23.370;2023-03-30T16:27:45;94653.78;;;16.96;45.92
5879;BME280;2965;42.640;23.370;2023-03-30T16:32:42;94660.47;;;15.92;47.36
5879;BME280;2965;42.640;23.370;2023-03-30T16:35:08;94651.84;;;16.10;45.53
5879;BME280;2965;42.640;23.370;2023-03-30T16:37:33;94655.94;;;16.06;48.97
5879;BME280;2965;42.640;23.370;2023-03-30T16:40:00;94653.81;;;15.89;50.75
5879;BME280;2965;42.640;23.370;2023-03-30T16:42:25;94649.66;;;15.17;48.12
5879;BME280;2965;42.640;23.370;2023-03-30T16:44:52;94645.59;;;15.21;52.93
5879;BME280;2965;42.640;23.370;2023-03-30T16:47:17;94655.53;;;15.19;51.58
5879;BME280;2965;42.640;23.370;2023-03-30T16:49:45;94648.84;;;15.23;51.09
5879;BME280;2965;42.640;23.370;2023-03-30T16:52:11;94653.31;;;15.09;51.32
5879;BME280;2965;42.640;23.370;2023-03-30T16:54:36;94656.56;;;15.05;51.00
5879;BME280;2965;42.640;23.370;2023-03-30T16:57:02;94654.38;;;15.02;53.90
5879;BME280;2965;42.640;23.370;2023-03-30T16:59:29;94659.50;;;14.44;51.77
5879;BME280;2965;42.640;23.370;2023-03-30T17:01:55;94653.81;;;14.00;56.19
5879;BME280;2965;42.640;23.370;2023-03-30T17:04:20;94653.41;;;13.97;52.54
5879;BME280;2965;42.640;23.370;2023-03-30T17:06:46;94661.28;;;13.22;59.18
5879;BME280;2965;42.640;23.370;2023-03-30T17:09:13;94660.50;;;13.28;57.61
5879;BME280;2965;42.640;23.370;2023-03-30T17:11:40;94653.56;;;13.21;58.12
5879;BME280;2965;42.640;23.370;2023-03-30T17:14:06;94657.25;;;13.26;63.93
5879;BME280;2965;42.640;23.370;2023-03-30T17:16:32;94651.47;;;13.44;62.11
5879;BME280;2965;42.640;23.370;2023-03-30T17:18:58;94664.97;;;12.65;66.67
5879;BME280;2965;42.640;23.370;2023-03-30T17:21:23;94671.53;;;12.82;64.04
5879;BME280;2965;42.640;23.370;2023-03-30T17:23:49;94669.94;;;12.81;60.72
5879;BME280;2965;42.640;23.370;2023-03-30T17:26:14;94670.38;;;12.92;61.78
5879;BME280;2965;42.640;23.370;2023-03-30T17:28:41;94666.00;;;12.99;63.22
5879;BME280;2965;42.640;23.370;2023-03-30T17:31:13;94670.63;;;12.97;58.49
5879;BME280;2965;42.640;23.370;2023-03-30T17:33:39;94670.09;;;13.14;56.56
5879;BME280;2965;42.640;23.370;2023-03-30T17:36:25;94661.22;;;13.16;60.71
5879;BME280;2965;42.640;23.370;2023-03-30T17:38:52;94657.59;;;13.17;62.17
5879;BME280;2965;42.640;23.370;2023-03-30T17:41:19;94664.47;;;13.18;56.56
5879;BME280;2965;42.640;23.370;2023-03-30T17:43:45;94666.81;;;12.99;55.34
5879;BME280;2965;42.640;23.370;2023-03-30T17:46:13;94666.59;;;13.01;56.05
5879;BME280;2965;42.640;23.370;2023-03-30T17:48:38;94665.22;;;13.05;54.71
5879;BME280;2965;42.640;23.370;2023-03-30T17:51:04;94661.41;;;13.14;56.89
5879;BME280;2965;42.640;23.370;2023-03-30T17:53:29;94656.75;;;13.09;55.87
5879;BME280;2965;42.640;23.370;2023-03-30T17:55:56;94659.06;;;12.84;60.15
5879;BME280;2965;42.640;23.370;2023-03-30T17:58:27;94654.19;;;12.81;60.01
5879;BME280;2965;42.640;23.370;2023-03-30T18:00:56;94655.88;;;12.96;58.26
5879;BME280;2965;42.640;23.370;2023-03-30T18:03:22;94650.25;;;13.05;57.42
5879;BME280;2965;42.640;23.370;2023-03-30T18:05:50;94647.03;;;13.10;58.09
5879;BME280;2965;42.640;23.370;2023-03-30T18:08:18;94651.09;;;13.06;59.96
5879;BME280;2965;42.640;23.370;2023-03-30T18:10:46;94643.44;;;13.11;60.27
5879;BME280;2965;42.640;23.370;2023-03-30T18:13:13;94630.84;;;13.00;62.59
5879;BME280;2965;42.640;23.370;2023-03-30T18:15:39;94637.72;;;13.01;63.19
5879;BME280;2965;42.640;23.370;2023-03-30T18:18:04;94642.16;;;13.00;63.68
5879;BME280;2965;42.640;23.370;2023-03-30T18:20:40;94640.97;;;13.03;65.67
5879;BME280;2965;42.640;23.370;2023-03-30T18:23:06;94634.50;;;13.05;66.92
5879;BME280;2965;42.640;23.370;2023-03-30T18:25:32;94633.47;;;13.00;68.33
5879;BME280;2965;42.640;23.370;2023-03-30T18:27:59;94624.84;;;12.71;66.71
5879;BME280;2965;42.640;23.370;2023-03-30T18:30:51;94622.75;;;12.60;65.18
5879;BME280;2965;42.640;23.370;2023-03-30T18:33:19;94625.31;;;12.47;63.62
5879;BME280;2965;42.640;23.370;2023-03-30T18:35:46;94620.34;;;12.30;64.13
5879;BME280;2965;42.640;23.370;2023-03-30T18:38:15;94620.88;;;12.19;63.87
5879;BME280;2965;42.640;23.370;2023-03-30T18:40:43;94624.28;;;12.13;62.83
5879;BME280;2965;42.640;23.370;2023-03-30T18:43:13;94628.69;;;12.12;62.61
5879;BME280;2965;42.640;23.370;2023-03-30T18:45:41;94625.38;;;12.04;61.77
5879;BME280;2965;42.640;23.370;2023-03-30T18:48:12;94629.25;;;12.08;61.44
5879;BME280;2965;42.640;23.370;2023-03-30T18:50:48;94629.00;;;12.03;63.15
5879;BME280;2965;42.640;23.370;2023-03-30T18:53:20;94629.00;;;12.03;62.39
5879;BME280;2965;42.640;23.370;2023-03-30T18:55:48;94627.88;;;12.12;62.91
5879;BME280;2965;42.640;23.370;2023-03-30T18:58:21;94618.88;;;12.21;63.10
5879;BME280;2965;42.640;23.370;2023-03-30T19:00:48;94627.59;;;12.28;63.06
5879;BME280;2965;42.640;23.370;2023-03-30T19:03:14;94621.97;;;12.31;62.04
5879;BME280;2965;42.640;23.370;2023-03-30T19:05:40;94618.72;;;12.29;61.81
5879;BME280;2965;42.640;23.370;2023-03-30T19:08:13;94608.47;;;12.34;64.77
5879;BME280;2965;42.640;23.370;2023-03-30T19:10:40;94605.38;;;12.24;63.55
5879;BME280;2965;42.640;23.370;2023-03-30T19:13:06;94595.25;;;12.21;61.95
5879;BME280;2965;42.640;23.370;2023-03-30T19:15:35;94605.00;;;12.27;61.78
5879;BME280;2965;42.640;23.370;2023-03-30T19:18:01;94605.75;;;12.21;61.69
5879;BME280;2965;42.640;23.370;2023-03-30T19:20:28;94612.25;;;12.25;60.87
5879;BME280;2965;42.640;23.370;2023-03-30T19:22:54;94600.13;;;12.24;62.04
5879;BME280;2965;42.640;23.370;2023-03-30T19:25:22;94595.25;;;12.21;62.59
5879;BME280;2965;42.640;23.370;2023-03-30T19:27:49;94608.19;;;12.23;62.92
5879;BME280;2965;42.640;23.370;2023-03-30T19:30:17;94595.25;;;12.21;62.27
5879;BME280;2965;42.640;23.370;2023-03-30T19:32:44;94589.63;;;12.18;61.97
5879;BME280;2965;42.640;23.370;2023-03-30T19:35:11;94584.41;;;12.24;62.77
5879;BME280;2965;42.640;23.370;2023-03-30T19:37:38;94596.13;;;12.28;61.66
5879;BME280;2965;42.640;23.370;2023-03-30T19:40:06;94596.16;;;12.35;61.75
5879;BME280;2965;42.640;23.370;2023-03-30T19:42:32;94594.97;;;12.37;61.61